West Palm Beach, FL (33406)

8:53 PM EDT on May 24, 2015 (GMT -0400)
LCS Police HQ / EOC | | Change Station
CLOSE
Current Station
Personal Weather Station
Location: Lake Clarke Shores, FL
Elevation: 30 ft
Nearby Weather Stations

Elev 30 ft 26.65 °N, 80.08 °W | Updated 18 seconds ago

Mostly Cloudy
Mostly Cloudy
79.3 °F
Feels Like 83 °F
N
2.2
Wind Variable Wind from East
Gusts 7.1 mph

Today
High -- | Low -- °F
--% Chance of Precip.
Yesterday
High -- | Low -- °F
Precip. -- in
6:29 AM 8:05 PM
Waxing Crescent, 43% visible
Pressure 30.15 in
Visibility 10.0 miles
Clouds Scattered Clouds 1600 ft
Mostly Cloudy 2500 ft
Mostly Cloudy 5500 ft
Heat Index 83 °F
Dew Point 74 °F
Humidity 83%
Rainfall 0.00 in
Snow Depth Not available.
UV 0 out of 12
Pollen 5.20 out of 12
Air Quality Not available.
Flu Activity Sporadic
METAR KPBI 242353Z 11016G21KT 10SM SCT016 BKN025 BKN055 27/23 A3015 RMK AO2 RAE2257 SLP210 VCSH NE-S P0000 60000 T02670228 10306 20267 53003

More Conditions Fewer Conditions

Pressure 30.15 in
Visibility 10.0 miles
Clouds Scattered Clouds 1600 ft
Mostly Cloudy 2500 ft
Mostly Cloudy 5500 ft
Heat Index 83 °F
Dew Point 74 °F
Humidity 83%
Rainfall 0.00 in
Snow Depth Not available.
UV 0 out of 12
Pollen 5.20 out of 12
Air Quality Not available.
Flu Activity Sporadic
METAR KPBI 242353Z 11016G21KT 10SM SCT016 BKN025 BKN055 27/23 A3015 RMK AO2 RAE2257 SLP210 VCSH NE-S P0000 60000 T02670228 10306 20267 53003

More Conditions Fewer Conditions

Nowcast | as of 7:24 PM EDT on May 24, 2015

Scattered showers will continue to stream westward into portions of Palm Beach County early this evening. Most activity will remain north of Delray Beach. Very heavy downpours are possible.

×

10-Day Weather Forecast

Almanac

Astronomy

May. 24, 2015 Rise Set
Actual Time
Civil Twilight
Nautical Twilight
Astronomical Twilight
Moon
Length of Visible Light
Length of Day
Tomorrow will be .
, % of the Moon is Illuminated

Today's Extremes

State Highs State Lows

Community

WunderPhotos

Upload Photos

1,823,907 photos uploaded!

WunderBlogs® & News

Nearby

Air Quality

  Air Quality AQ Index Pollutant
Not available.

Snow Depth

Station Depth Elevation

Earthquake Activity

City Distance Mag. Time & Date
Minimum magnitude displayed is 2.5.

Coastal Water Temperatures

Place Temperature

Stations

Nearby Weather Stations

Station Location Temp. Windchill Dew Point Humidity Wind Precip. Elev Updated Type